sensor_id;sensor_type;location;lat;lon;timestamp;temperature;humidity
58849;DHT22;44619;51.022;6.818;2023-04-05T00:00:42;5.60;44.20
58849;DHT22;44619;51.022;6.818;2023-04-05T00:03:08;5.70;44.10
58849;DHT22;44619;51.022;6.818;2023-04-05T00:05:38;5.40;44.30
58849;DHT22;44619;51.022;6.818;2023-04-05T00:08:03;5.40;44.20
58849;DHT22;44619;51.022;6.818;2023-04-05T00:10:32;5.30;44.30
58849;DHT22;44619;51.022;6.818;2023-04-05T00:12:58;5.20;44.40
58849;DHT22;44619;51.022;6.818;2023-04-05T00:15:23;5.30;44.50
58849;DHT22;44619;51.022;6.818;2023-04-05T00:17:49;5.30;44.20
58849;DHT22;44619;51.022;6.818;2023-04-05T00:20:18;5.20;44.20
58849;DHT22;44619;51.022;6.818;2023-04-05T00:22:44;5.20;44.40
58849;DHT22;44619;51.022;6.818;2023-04-05T00:25:11;5.20;44.30
58849;DHT22;44619;51.022;6.818;2023-04-05T00:27:37;5.20;44.30
58849;DHT22;44619;51.022;6.818;2023-04-05T00:30:02;5.10;44.20
58849;DHT22;44619;51.022;6.818;2023-04-05T00:32:28;5.10;44.40
58849;DHT22;44619;51.022;6.818;2023-04-05T00:34:53;5.00;44.40
58849;DHT22;44619;51.022;6.818;2023-04-05T00:37:23;5.00;44.40
58849;DHT22;44619;51.022;6.818;2023-04-05T00:39:48;5.00;44.30
58849;DHT22;44619;51.022;6.818;2023-04-05T00:42:14;5.00;44.50
58849;DHT22;44619;51.022;6.818;2023-04-05T00:44:39;4.90;44.50
58849;DHT22;44619;51.022;6.818;2023-04-05T00:47:05;4.90;44.50
58849;DHT22;44619;51.022;6.818;2023-04-05T00:49:35;4.70;44.50
58849;DHT22;44619;51.022;6.818;2023-04-05T00:52:02;4.80;44.40
58849;DHT22;44619;51.022;6.818;2023-04-05T00:54:28;4.80;44.30
58849;DHT22;44619;51.022;6.818;2023-04-05T00:56:57;4.90;44.20
58849;DHT22;44619;51.022;6.818;2023-04-05T00:59:27;4.90;44.20
58849;DHT22;44619;51.022;6.818;2023-04-05T01:02:17;4.80;44.30
58849;DHT22;44619;51.022;6.818;2023-04-05T01:04:41;4.70;44.50
58849;DHT22;44619;51.022;6.818;2023-04-05T01:09:55;4.90;44.20
58849;DHT22;44619;51.022;6.818;2023-04-05T01:12:22;5.00;44.00
58849;DHT22;44619;51.022;6.818;2023-04-05T01:14:51;4.90;44.10
58849;DHT22;44619;51.022;6.818;2023-04-05T01:17:17;4.80;44.30
58849;DHT22;44619;51.022;6.818;2023-04-05T01:19:49;4.80;44.40
58849;DHT22;44619;51.022;6.818;2023-04-05T01:27:23;4.80;44.30
58849;DHT22;44619;51.022;6.818;2023-04-05T01:37:19;4.70;44.40
58849;DHT22;44619;51.022;6.818;2023-04-05T01:39:45;4.70;44.50
58849;DHT22;44619;51.022;6.818;2023-04-05T01:42:21;4.70;44.50
58849;DHT22;44619;51.022;6.818;2023-04-05T01:44:50;4.70;44.40
58849;DHT22;44619;51.022;6.818;2023-04-05T01:47:16;4.60;44.60
58849;DHT22;44619;51.022;6.818;2023-04-05T01:49:41;4.60;44.60
58849;DHT22;44619;51.022;6.818;2023-04-05T01:52:07;4.50;44.70
58849;DHT22;44619;51.022;6.818;2023-04-05T01:54:32;4.60;44.70
58849;DHT22;44619;51.022;6.818;2023-04-05T01:56:58;4.50;44.90
58849;DHT22;44619;51.022;6.818;2023-04-05T01:59:24;4.50;44.80
58849;DHT22;44619;51.022;6.818;2023-04-05T02:01:50;4.50;44.90
58849;DHT22;44619;51.022;6.818;2023-04-05T02:04:17;4.40;44.80
58849;DHT22;44619;51.022;6.818;2023-04-05T02:06:43;4.50;44.80
58849;DHT22;44619;51.022;6.818;2023-04-05T02:09:08;4.40;44.80
58849;DHT22;44619;51.022;6.818;2023-04-05T02:11:34;4.50;44.70
58849;DHT22;44619;51.022;6.818;2023-04-05T02:13:59;4.50;44.90
58849;DHT22;44619;51.022;6.818;2023-04-05T02:16:25;4.50;44.70
58849;DHT22;44619;51.022;6.818;2023-04-05T02:18:51;4.40;44.80
58849;DHT22;44619;51.022;6.818;2023-04-05T02:21:25;4.50;44.80
58849;DHT22;44619;51.022;6.818;2023-04-05T02:23:51;4.40;44.90
58849;DHT22;44619;51.022;6.818;2023-04-05T02:26:16;4.30;44.90
58849;DHT22;44619;51.022;6.818;2023-04-05T02:28:42;4.30;44.90
58849;DHT22;44619;51.022;6.818;2023-04-05T02:31:11;4.40;44.80
58849;DHT22;44619;51.022;6.818;2023-04-05T02:33:37;4.40;44.70
58849;DHT22;44619;51.022;6.818;2023-04-05T02:36:06;4.40;44.80
58849;DHT22;44619;51.022;6.818;2023-04-05T02:38:33;4.40;44.70
58849;DHT22;44619;51.022;6.818;2023-04-05T02:40:59;4.40;44.50
58849;DHT22;44619;51.022;6.818;2023-04-05T02:43:25;4.40;44.70
58849;DHT22;44619;51.022;6.818;2023-04-05T02:45:51;4.40;44.80
58849;DHT22;44619;51.022;6.818;2023-04-05T02:48:17;4.40;44.70
58849;DHT22;44619;51.022;6.818;2023-04-05T02:50:47;4.40;44.50
58849;DHT22;44619;51.022;6.818;2023-04-05T02:53:13;4.30;44.60
58849;DHT22;44619;51.022;6.818;2023-04-05T02:55:38;4.30;44.70
58849;DHT22;44619;51.022;6.818;2023-04-05T02:58:06;4.20;44.60
58849;DHT22;44619;51.022;6.818;2023-04-05T03:00:32;4.30;44.60
58849;DHT22;44619;51.022;6.818;2023-04-05T03:02:58;4.20;44.60
58849;DHT22;44619;51.022;6.818;2023-04-05T03:05:23;4.20;44.70
58849;DHT22;44619;51.022;6.818;2023-04-05T03:07:49;4.10;44.60
58849;DHT22;44619;51.022;6.818;2023-04-05T03:10:16;4.10;44.70
58849;DHT22;44619;51.022;6.818;2023-04-05T03:12:46;4.10;44.70
58849;DHT22;44619;51.022;6.818;2023-04-05T03:15:12;4.00;44.90
58849;DHT22;44619;51.022;6.818;2023-04-05T03:17:38;4.00;44.70
58849;DHT22;44619;51.022;6.818;2023-04-05T03:20:05;4.00;44.70
58849;DHT22;44619;51.022;6.818;2023-04-05T03:22:33;4.00;44.50
58849;DHT22;44619;51.022;6.818;2023-04-05T03:24:58;3.90;44.60
58849;DHT22;44619;51.022;6.818;2023-04-05T03:27:26;3.80;44.80
58849;DHT22;44619;51.022;6.818;2023-04-05T03:29:53;3.90;44.60
58849;DHT22;44619;51.022;6.818;2023-04-05T03:32:20;3.90;44.60
58849;DHT22;44619;51.022;6.818;2023-04-05T03:34:45;3.80;44.60
58849;DHT22;44619;51.022;6.818;2023-04-05T03:37:11;3.80;44.60
58849;DHT22;44619;51.022;6.818;2023-04-05T03:39:37;3.70;44.70
58849;DHT22;44619;51.022;6.818;2023-04-05T03:42:02;3.70;44.50
58849;DHT22;44619;51.022;6.818;2023-04-05T03:44:28;3.70;44.60
58849;DHT22;44619;51.022;6.818;2023-04-05T03:46:54;3.70;44.50
58849;DHT22;44619;51.022;6.818;2023-04-05T03:49:21;3.60;44.70
58849;DHT22;44619;51.022;6.818;2023-04-05T03:51:46;3.60;44.50
58849;DHT22;44619;51.022;6.818;2023-04-05T03:54:12;3.40;44.90
58849;DHT22;44619;51.022;6.818;2023-04-05T03:56:38;3.40;44.70
58849;DHT22;44619;51.022;6.818;2023-04-05T03:59:04;3.40;44.60
58849;DHT22;44619;51.022;6.818;2023-04-05T04:01:32;3.40;44.60
58849;DHT22;44619;51.022;6.818;2023-04-05T04:03:58;3.40;44.70
58849;DHT22;44619;51.022;6.818;2023-04-05T04:06:24;3.40;44.70
58849;DHT22;44619;51.022;6.818;2023-04-05T04:08:51;3.20;45.50
58849;DHT22;44619;51.022;6.818;2023-04-05T04:11:17;3.30;44.80
58849;DHT22;44619;51.022;6.818;2023-04-05T04:13:42;3.20;44.80
58849;DHT22;44619;51.022;6.818;2023-04-05T04:16:08;3.20;44.80
58849;DHT22;44619;51.022;6.818;2023-04-05T04:18:33;3.20;44.80
58849;DHT22;44619;51.022;6.818;2023-04-05T04:21:01;3.10;45.00
58849;DHT22;44619;51.022;6.818;2023-04-05T04:23:31;3.10;45.00
58849;DHT22;44619;51.022;6.818;2023-04-05T04:25:57;3.10;44.80
58849;DHT22;44619;51.022;6.818;2023-04-05T04:28:22;3.10;44.90
58849;DHT22;44619;51.022;6.818;2023-04-05T04:30:50;3.00;45.00
58849;DHT22;44619;51.022;6.818;2023-04-05T04:33:15;3.00;44.90
58849;DHT22;44619;51.022;6.818;2023-04-05T04:35:42;2.90;45.00
58849;DHT22;44619;51.022;6.818;2023-04-05T04:38:11;2.90;45.10
58849;DHT22;44619;51.022;6.818;2023-04-05T04:40:44;2.90;45.00
58849;DHT22;44619;51.022;6.818;2023-04-05T04:43:17;2.80;45.20
58849;DHT22;44619;51.022;6.818;2023-04-05T04:45:47;2.70;45.40
58849;DHT22;44619;51.022;6.818;2023-04-05T04:48:13;2.70;45.20
58849;DHT22;44619;51.022;6.818;2023-04-05T04:50:44;2.70;45.30
58849;DHT22;44619;51.022;6.818;2023-04-05T04:53:13;2.70;45.20
58849;DHT22;44619;51.022;6.818;2023-04-05T04:55:42;2.70;45.10
58849;DHT22;44619;51.022;6.818;2023-04-05T04:58:08;2.70;45.00
58849;DHT22;44619;51.022;6.818;2023-04-05T05:00:37;2.70;45.10
58849;DHT22;44619;51.022;6.818;2023-04-05T05:03:02;2.70;44.90
58849;DHT22;44619;51.022;6.818;2023-04-05T05:05:28;2.60;45.20
58849;DHT22;44619;51.022;6.818;2023-04-05T05:07:53;2.60;45.20
58849;DHT22;44619;51.022;6.818;2023-04-05T05:10:19;2.70;45.20
58849;DHT22;44619;51.022;6.818;2023-04-05T05:12:47;2.60;44.90
58849;DHT22;44619;51.022;6.818;2023-04-05T05:15:13;2.70;45.10
58849;DHT22;44619;51.022;6.818;2023-04-05T05:17:40;2.60;45.20
58849;DHT22;44619;51.022;6.818;2023-04-05T05:20:05;2.60;45.20
58849;DHT22;44619;51.022;6.818;2023-04-05T05:22:38;2.70;45.00
58849;DHT22;44619;51.022;6.818;2023-04-05T05:25:04;2.50;45.40
58849;DHT22;44619;51.022;6.818;2023-04-05T05:27:30;2.50;45.20
58849;DHT22;44619;51.022;6.818;2023-04-05T05:29:55;2.60;45.20
58849;DHT22;44619;51.022;6.818;2023-04-05T05:32:21;2.50;45.20
58849;DHT22;44619;51.022;6.818;2023-04-05T05:34:47;2.60;45.20
58849;DHT22;44619;51.022;6.818;2023-04-05T05:37:13;2.60;45.20
58849;DHT22;44619;51.022;6.818;2023-04-05T05:39:39;2.60;45.20
58849;DHT22;44619;51.022;6.818;2023-04-05T05:42:05;2.60;45.20
58849;DHT22;44619;51.022;6.818;2023-04-05T05:44:30;2.60;45.20
58849;DHT22;44619;51.022;6.818;2023-04-05T05:46:56;2.60;45.10
58849;DHT22;44619;51.022;6.818;2023-04-05T05:49:22;2.60;45.10
58849;DHT22;44619;51.022;6.818;2023-04-05T05:51:48;2.50;45.40
58849;DHT22;44619;51.022;6.818;2023-04-05T05:54:13;2.50;45.50
58849;DHT22;44619;51.022;6.818;2023-04-05T05:56:39;2.50;45.60
58849;DHT22;44619;51.022;6.818;2023-04-05T05:59:05;2.60;45.60
58849;DHT22;44619;51.022;6.818;2023-04-05T06:01:34;2.60;45.50
58849;DHT22;44619;51.022;6.818;2023-04-05T06:04:11;2.60;45.50
58849;DHT22;44619;51.022;6.818;2023-04-05T06:06:36;2.50;45.60
58849;DHT22;44619;51.022;6.818;2023-04-05T06:09:02;2.50;45.70
58849;DHT22;44619;51.022;6.818;2023-04-05T06:11:28;2.60;45.70
58849;DHT22;44619;51.022;6.818;2023-04-05T06:13:53;2.60;45.60
58849;DHT22;44619;51.022;6.818;2023-04-05T06:16:19;2.60;45.60
58849;DHT22;44619;51.022;6.818;2023-04-05T06:18:45;2.60;45.80
58849;DHT22;44619;51.022;6.818;2023-04-05T06:21:11;2.70;45.70
58849;DHT22;44619;51.022;6.818;2023-04-05T06:23:37;2.70;45.70
58849;DHT22;44619;51.022;6.818;2023-04-05T06:26:06;2.70;45.70
58849;DHT22;44619;51.022;6.818;2023-04-05T06:28:31;2.80;45.60
58849;DHT22;44619;51.022;6.818;2023-04-05T06:30:57;2.70;45.80
58849;DHT22;44619;51.022;6.818;2023-04-05T06:33:23;2.80;46.00
58849;DHT22;44619;51.022;6.818;2023-04-05T06:35:49;2.80;45.90
58849;DHT22;44619;51.022;6.818;2023-04-05T06:38:15;2.90;45.90
58849;DHT22;44619;51.022;6.818;2023-04-05T06:40:40;2.90;45.90
58849;DHT22;44619;51.022;6.818;2023-04-05T06:43:06;3.00;45.90
58849;DHT22;44619;51.022;6.818;2023-04-05T06:45:32;2.90;45.80
58849;DHT22;44619;51.022;6.818;2023-04-05T06:47:57;3.00;45.80
58849;DHT22;44619;51.022;6.818;2023-04-05T06:50:24;3.10;45.70
58849;DHT22;44619;51.022;6.818;2023-04-05T06:52:50;3.10;45.80
58849;DHT22;44619;51.022;6.818;2023-04-05T06:55:19;3.10;45.90
58849;DHT22;44619;51.022;6.818;2023-04-05T13:29:34;19.90;37.60
58849;DHT22;44619;51.022;6.818;2023-04-05T13:32:01;20.10;30.30
58849;DHT22;44619;51.022;6.818;2023-04-05T13:34:26;20.80;33.80
58849;DHT22;44619;51.022;6.818;2023-04-05T13:36:52;21.40;34.60
58849;DHT22;44619;51.022;6.818;2023-04-05T13:39:18;21.90;35.30
58849;DHT22;44619;51.022;6.818;2023-04-05T13:41:43;22.20;35.50
58849;DHT22;44619;51.022;6.818;2023-04-05T13:44:09;22.60;36.10
58849;DHT22;44619;51.022;6.818;2023-04-05T13:46:34;22.90;36.50
58849;DHT22;44619;51.022;6.818;2023-04-05T13:49:00;23.20;36.20
58849;DHT22;44619;51.022;6.818;2023-04-05T13:51:25;23.40;36.70
58849;DHT22;44619;51.022;6.818;2023-04-05T13:53:55;23.70;36.80
58849;DHT22;44619;51.022;6.818;2023-04-05T13:56:26;24.00;36.90
58849;DHT22;44619;51.022;6.818;2023-04-05T13:58:51;24.10;36.90
58849;DHT22;44619;51.022;6.818;2023-04-05T14:01:17;24.40;36.60
58849;DHT22;44619;51.022;6.818;2023-04-05T14:03:42;24.60;36.60
58849;DHT22;44619;51.022;6.818;2023-04-05T14:06:08;24.80;37.00
58849;DHT22;44619;51.022;6.818;2023-04-05T14:08:36;25.00;37.30
58849;DHT22;44619;51.022;6.818;2023-04-05T14:11:01;25.20;37.50
58849;DHT22;44619;51.022;6.818;2023-04-05T14:13:30;25.40;37.60
58849;DHT22;44619;51.022;6.818;2023-04-05T14:15:56;25.60;37.60
58849;DHT22;44619;51.022;6.818;2023-04-05T14:18:21;25.80;37.60
58849;DHT22;44619;51.022;6.818;2023-04-05T14:20:47;26.00;37.50
58849;DHT22;44619;51.022;6.818;2023-04-05T14:23:12;26.30;37.50
58849;DHT22;44619;51.022;6.818;2023-04-05T14:25:38;26.40;37.50
58849;DHT22;44619;51.022;6.818;2023-04-05T14:28:04;26.60;37.40
58849;DHT22;44619;51.022;6.818;2023-04-05T14:30:30;26.80;37.40
58849;DHT22;44619;51.022;6.818;2023-04-05T14:32:57;26.90;37.30
58849;DHT22;44619;51.022;6.818;2023-04-05T14:35:22;27.10;37.30
58849;DHT22;44619;51.022;6.818;2023-04-05T14:37:48;27.20;37.20
58849;DHT22;44619;51.022;6.818;2023-04-05T14:40:14;27.30;36.90
58849;DHT22;44619;51.022;6.818;2023-04-05T14:42:39;27.50;36.60
58849;DHT22;44619;51.022;6.818;2023-04-05T14:45:05;27.60;36.60
58849;DHT22;44619;51.022;6.818;2023-04-05T14:47:31;27.70;36.60
58849;DHT22;44619;51.022;6.818;2023-04-05T14:49:57;27.80;36.50
58849;DHT22;44619;51.022;6.818;2023-04-05T14:52:24;27.90;36.50
58849;DHT22;44619;51.022;6.818;2023-04-05T14:54:49;28.00;36.40
58849;DHT22;44619;51.022;6.818;2023-04-05T14:57:15;28.10;36.40
58849;DHT22;44619;51.022;6.818;2023-04-05T14:59:41;28.20;36.30
58849;DHT22;44619;51.022;6.818;2023-04-05T15:02:07;28.30;36.40
58849;DHT22;44619;51.022;6.818;2023-04-05T15:04:33;28.30;36.40
58849;DHT22;44619;51.022;6.818;2023-04-05T15:07:02;28.30;36.60
58849;DHT22;44619;51.022;6.818;2023-04-05T15:09:29;28.40;36.70
58849;DHT22;44619;51.022;6.818;2023-04-05T15:11:57;28.50;36.70
58849;DHT22;44619;51.022;6.818;2023-04-05T15:14:23;28.50;36.70
58849;DHT22;44619;51.022;6.818;2023-04-05T15:16:48;28.60;36.50
58849;DHT22;44619;51.022;6.818;2023-04-05T15:19:14;28.70;36.40
58849;DHT22;44619;51.022;6.818;2023-04-05T15:21:40;28.70;36.40
58849;DHT22;44619;51.022;6.818;2023-04-05T15:24:08;28.80;36.40
58849;DHT22;44619;51.022;6.818;2023-04-05T15:26:33;28.80;36.40
58849;DHT22;44619;51.022;6.818;2023-04-05T15:29:02;28.90;36.30
58849;DHT22;44619;51.022;6.818;2023-04-05T15:31:27;28.90;36.20
58849;DHT22;44619;51.022;6.818;2023-04-05T15:33:53;29.00;36.10
58849;DHT22;44619;51.022;6.818;2023-04-05T15:36:18;29.00;36.00
58849;DHT22;44619;51.022;6.818;2023-04-05T15:38:44;29.00;35.90
58849;DHT22;44619;51.022;6.818;2023-04-05T15:41:10;29.00;35.90
58849;DHT22;44619;51.022;6.818;2023-04-05T15:43:36;29.10;35.90
58849;DHT22;44619;51.022;6.818;2023-04-05T15:46:03;29.10;35.80
58849;DHT22;44619;51.022;6.818;2023-04-05T15:48:29;29.10;35.80
58849;DHT22;44619;51.022;6.818;2023-04-05T15:50:54;29.10;35.70
58849;DHT22;44619;51.022;6.818;2023-04-05T15:53:20;29.10;35.50
58849;DHT22;44619;51.022;6.818;2023-04-05T15:55:46;29.20;35.30
58849;DHT22;44619;51.022;6.818;2023-04-05T15:58:11;29.10;35.60
58849;DHT22;44619;51.022;6.818;2023-04-05T16:00:37;29.10;34.90
58849;DHT22;44619;51.022;6.818;2023-04-05T16:03:03;29.10;35.20
58849;DHT22;44619;51.022;6.818;2023-04-05T16:05:28;29.00;35.10
58849;DHT22;44619;51.022;6.818;2023-04-05T16:07:55;29.00;35.20
58849;DHT22;44619;51.022;6.818;2023-04-05T16:10:21;29.00;35.20
58849;DHT22;44619;51.022;6.818;2023-04-05T16:12:47;29.00;35.00
58849;DHT22;44619;51.022;6.818;2023-04-05T16:15:13;28.90;34.90
58849;DHT22;44619;51.022;6.818;2023-04-05T16:17:38;28.90;35.10
58849;DHT22;44619;51.022;6.818;2023-04-05T16:20:04;28.80;35.70
58849;DHT22;44619;51.022;6.818;2023-04-05T16:22:30;28.70;35.10
58849;DHT22;44619;51.022;6.818;2023-04-05T16:24:56;28.60;35.10
58849;DHT22;44619;51.022;6.818;2023-04-05T16:27:25;28.50;35.00
58849;DHT22;44619;51.022;6.818;2023-04-05T16:29:50;28.30;34.90
58849;DHT22;44619;51.022;6.818;2023-04-05T16:32:16;28.00;35.00
58849;DHT22;44619;51.022;6.818;2023-04-05T16:34:42;27.90;35.00
58849;DHT22;44619;51.022;6.818;2023-04-05T16:37:07;27.70;35.00
58849;DHT22;44619;51.022;6.818;2023-04-05T16:39:34;27.50;34.90
58849;DHT22;44619;51.022;6.818;2023-04-05T16:41:59;27.30;35.00
58849;DHT22;44619;51.022;6.818;2023-04-05T16:44:25;27.00;35.00
58849;DHT22;44619;51.022;6.818;2023-04-05T16:46:51;26.90;35.00
58849;DHT22;44619;51.022;6.818;2023-04-05T16:49:18;26.80;35.60
58849;DHT22;44619;51.022;6.818;2023-04-05T16:51:43;26.60;34.80
58849;DHT22;44619;51.022;6.818;2023-04-05T16:54:10;26.40;34.60
58849;DHT22;44619;51.022;6.818;2023-04-05T16:56:38;26.20;34.70
58849;DHT22;44619;51.022;6.818;2023-04-05T16:59:05;26.00;34.70
58849;DHT22;44619;51.022;6.818;2023-04-05T17:01:39;25.80;34.40
58849;DHT22;44619;51.022;6.818;2023-04-05T17:04:05;25.60;34.60
58849;DHT22;44619;51.022;6.818;2023-04-05T17:06:32;25.50;34.70
58849;DHT22;44619;51.022;6.818;2023-04-05T17:08:57;25.30;34.20
58849;DHT22;44619;51.022;6.818;2023-04-05T17:11:24;25.20;34.40
58849;DHT22;44619;51.022;6.818;2023-04-05T17:13:50;24.90;34.40
58849;DHT22;44619;51.022;6.818;2023-04-05T17:16:15;24.80;34.30
58849;DHT22;44619;51.022;6.818;2023-04-05T17:18:41;24.60;35.30
58849;DHT22;44619;51.022;6.818;2023-04-05T17:21:07;24.20;26.50
58849;DHT22;44619;51.022;6.818;2023-04-05T17:23:32;23.80;28.30
58849;DHT22;44619;51.022;6.818;2023-04-05T17:25:58;23.70;29.70
58849;DHT22;44619;51.022;6.818;2023-04-05T17:28:24;23.60;30.40
58849;DHT22;44619;51.022;6.818;2023-04-05T17:30:50;23.40;31.00
58849;DHT22;44619;51.022;6.818;2023-04-05T17:33:18;23.10;31.70
58849;DHT22;44619;51.022;6.818;2023-04-05T17:35:44;22.90;32.10
58849;DHT22;44619;51.022;6.818;2023-04-05T17:38:09;22.70;32.60
58849;DHT22;44619;51.022;6.818;2023-04-05T17:40:35;22.50;32.90
58849;DHT22;44619;51.022;6.818;2023-04-05T17:43:01;22.30;33.20
58849;DHT22;44619;51.022;6.818;2023-04-05T17:45:27;22.10;33.30
58849;DHT22;44619;51.022;6.818;2023-04-05T17:47:53;21.90;33.60
58849;DHT22;44619;51.022;6.818;2023-04-05T17:50:19;21.70;33.70
58849;DHT22;44619;51.022;6.818;2023-04-05T17:52:45;21.60;33.80
58849;DHT22;44619;51.022;6.818;2023-04-05T17:55:11;21.40;33.60
58849;DHT22;44619;51.022;6.818;2023-04-05T17:57:39;21.30;33.50
58849;DHT22;44619;51.022;6.818;2023-04-05T18:00:05;21.10;33.70
58849;DHT22;44619;51.022;6.818;2023-04-05T18:02:31;20.90;33.50
58849;DHT22;44619;51.022;6.818;2023-04-05T18:05:01;20.70;33.70
58849;DHT22;44619;51.022;6.818;2023-04-05T18:07:27;20.60;33.90
58849;DHT22;44619;51.022;6.818;2023-04-05T18:09:52;20.40;33.80
58849;DHT22;44619;51.022;6.818;2023-04-05T18:12:21;20.20;33.80
58849;DHT22;44619;51.022;6.818;2023-04-05T18:14:46;20.00;33.90
58849;DHT22;44619;51.022;6.818;2023-04-05T18:17:15;19.90;33.80
58849;DHT22;44619;51.022;6.818;2023-04-05T18:19:45;19.80;33.80
58849;DHT22;44619;51.022;6.818;2023-04-05T18:22:14;19.60;33.80
58849;DHT22;44619;51.022;6.818;2023-04-05T18:24:40;19.40;33.80
58849;DHT22;44619;51.022;6.818;2023-04-05T18:27:12;19.30;33.90
58849;DHT22;44619;51.022;6.818;2023-04-05T18:29:41;19.10;33.90
58849;DHT22;44619;51.022;6.818;2023-04-05T18:32:07;18.90;33.80
58849;DHT22;44619;51.022;6.818;2023-04-05T18:34:33;18.70;33.90
58849;DHT22;44619;51.022;6.818;2023-04-05T18:36:59;18.60;33.80
58849;DHT22;44619;51.022;6.818;2023-04-05T18:39:25;18.50;34.70
58849;DHT22;44619;51.022;6.818;2023-04-05T18:41:53;18.40;33.90
58849;DHT22;44619;51.022;6.818;2023-04-05T18:44:19;18.20;34.00
58849;DHT22;44619;51.022;6.818;2023-04-05T18:46:45;18.00;34.10
58849;DHT22;44619;51.022;6.818;2023-04-05T18:49:10;17.90;34.40
58849;DHT22;44619;51.022;6.818;2023-04-05T18:51:36;17.80;34.30
58849;DHT22;44619;51.022;6.818;2023-04-05T18:54:02;17.60;34.50
58849;DHT22;44619;51.022;6.818;2023-04-05T18:56:27;17.50;34.20
58849;DHT22;44619;51.022;6.818;2023-04-05T18:58:53;17.50;34.20
58849;DHT22;44619;51.022;6.818;2023-04-05T19:01:19;17.30;34.10
58849;DHT22;44619;51.022;6.818;2023-04-05T19:03:45;17.20;34.10
58849;DHT22;44619;51.022;6.818;2023-04-05T19:06:11;17.10;34.10
58849;DHT22;44619;51.022;6.818;2023-04-05T19:08:37;17.10;33.90
58849;DHT22;44619;51.022;6.818;2023-04-05T19:11:03;17.10;33.90
58849;DHT22;44619;51.022;6.818;2023-04-05T19:13:29;17.00;34.00
58849;DHT22;44619;51.022;6.818;2023-04-05T19:15:55;16.80;34.10
58849;DHT22;44619;51.022;6.818;2023-04-05T19:18:21;16.70;33.90
58849;DHT22;44619;51.022;6.818;2023-04-05T19:20:53;16.50;34.20
58849;DHT22;44619;51.022;6.818;2023-04-05T19:23:19;16.50;34.20
58849;DHT22;44619;51.022;6.818;2023-04-05T19:25:44;16.30;34.20
58849;DHT22;44619;51.022;6.818;2023-04-05T19:28:10;16.10;34.50
58849;DHT22;44619;51.022;6.818;2023-04-05T19:30:37;16.00;34.50
58849;DHT22;44619;51.022;6.818;2023-04-05T19:33:06;15.90;34.40
58849;DHT22;44619;51.022;6.818;2023-04-05T19:35:35;15.70;34.60
58849;DHT22;44619;51.022;6.818;2023-04-05T19:38:02;15.70;34.50
58849;DHT22;44619;51.022;6.818;2023-04-05T19:40:30;15.60;34.60
58849;DHT22;44619;51.022;6.818;2023-04-05T19:42:56;15.50;34.60
58849;DHT22;44619;51.022;6.818;2023-04-05T19:45:27;15.30;34.50
58849;DHT22;44619;51.022;6.818;2023-04-05T19:47:53;15.10;35.00
58849;DHT22;44619;51.022;6.818;2023-04-05T19:51:06;15.10;34.80
58849;DHT22;44619;51.022;6.818;2023-04-05T19:53:06;15.00;34.80
58849;DHT22;44619;51.022;6.818;2023-04-05T19:55:32;15.00;34.60
58849;DHT22;44619;51.022;6.818;2023-04-05T19:57:58;14.90;34.60
58849;DHT22;44619;51.022;6.818;2023-04-05T20:00:28;14.70;34.90
58849;DHT22;44619;51.022;6.818;2023-04-05T20:02:54;14.60;35.10
58849;DHT22;44619;51.022;6.818;2023-04-05T20:05:32;14.40;35.20
58849;DHT22;44619;51.022;6.818;2023-04-05T20:08:05;14.40;35.20
58849;DHT22;44619;51.022;6.818;2023-04-05T20:10:39;14.30;35.20
58849;DHT22;44619;51.022;6.818;2023-04-05T20:13:05;14.20;35.20
58849;DHT22;44619;51.022;6.818;2023-04-05T20:15:31;14.00;35.20
58849;DHT22;44619;51.022;6.818;2023-04-05T20:17:58;14.00;35.40
58849;DHT22;44619;51.022;6.818;2023-04-05T20:20:23;13.90;35.30
58849;DHT22;44619;51.022;6.818;2023-04-05T20:22:49;13.80;35.40
58849;DHT22;44619;51.022;6.818;2023-04-05T20:27:59;13.70;35.40
58849;DHT22;44619;51.022;6.818;2023-04-05T20:30:25;13.60;35.30
58849;DHT22;44619;51.022;6.818;2023-04-05T20:32:50;13.40;35.50
58849;DHT22;44619;51.022;6.818;2023-04-05T20:35:32;13.40;35.50
58849;DHT22;44619;51.022;6.818;2023-04-05T20:37:58;13.30;35.50
58849;DHT22;44619;51.022;6.818;2023-04-05T20:40:24;13.30;35.40
58849;DHT22;44619;51.022;6.818;2023-04-05T20:42:50;13.20;35.30
58849;DHT22;44619;51.022;6.818;2023-04-05T20:45:16;13.20;35.40
58849;DHT22;44619;51.022;6.818;2023-04-05T20:47:41;13.00;35.50
58849;DHT22;44619;51.022;6.818;2023-04-05T20:50:07;12.90;35.60
58849;DHT22;44619;51.022;6.818;2023-04-05T20:52:33;13.00;35.50
58849;DHT22;44619;51.022;6.818;2023-04-05T20:54:58;12.80;35.50
58849;DHT22;44619;51.022;6.818;2023-04-05T20:57:24;12.70;35.50
58849;DHT22;44619;51.022;6.818;2023-04-05T20:59:50;12.50;36.00
58849;DHT22;44619;51.022;6.818;2023-04-05T21:02:15;12.50;36.00
58849;DHT22;44619;51.022;6.818;2023-04-05T21:04:41;12.40;35.90
58849;DHT22;44619;51.022;6.818;2023-04-05T21:07:10;12.30;36.10
58849;DHT22;44619;51.022;6.818;2023-04-05T21:09:36;12.40;35.80
58849;DHT22;44619;51.022;6.818;2023-04-05T21:12:02;12.40;35.50
58849;DHT22;44619;51.022;6.818;2023-04-05T21:14:28;12.20;35.80
58849;DHT22;44619;51.022;6.818;2023-04-05T21:16:53;12.20;35.80
58849;DHT22;44619;51.022;6.818;2023-04-05T21:19:19;12.10;35.90
58849;DHT22;44619;51.022;6.818;2023-04-05T21:21:45;11.90;36.10
58849;DHT22;44619;51.022;6.818;2023-04-05T21:24:10;11.90;36.10
58849;DHT22;44619;51.022;6.818;2023-04-05T21:26:36;12.00;35.90
58849;DHT22;44619;51.022;6.818;2023-04-05T21:29:02;11.80;36.10
58849;DHT22;44619;51.022;6.818;2023-04-05T21:31:27;11.70;36.10
58849;DHT22;44619;51.022;6.818;2023-04-05T21:33:53;11.50;36.20
58849;DHT22;44619;51.022;6.818;2023-04-05T21:36:18;11.50;36.40
58849;DHT22;44619;51.022;6.818;2023-04-05T21:38:44;11.40;36.30
58849;DHT22;44619;51.022;6.818;2023-04-05T21:41:13;11.30;36.50
58849;DHT22;44619;51.022;6.818;2023-04-05T21:43:38;11.40;36.30
58849;DHT22;44619;51.022;6.818;2023-04-05T21:46:04;11.20;36.30
58849;DHT22;44619;51.022;6.818;2023-04-05T21:48:29;11.20;36.30
58849;DHT22;44619;51.022;6.818;2023-04-05T21:50:55;11.20;36.30
58849;DHT22;44619;51.022;6.818;2023-04-05T21:53:20;11.20;36.30
58849;DHT22;44619;51.022;6.818;2023-04-05T21:55:48;11.00;36.50
58849;DHT22;44619;51.022;6.818;2023-04-05T21:58:14;11.00;36.20
58849;DHT22;44619;51.022;6.818;2023-04-05T22:00:39;10.90;36.50
58849;DHT22;44619;51.022;6.818;2023-04-05T22:03:08;10.80;36.70
58849;DHT22;44619;51.022;6.818;2023-04-05T22:05:35;10.80;36.40
58849;DHT22;44619;51.022;6.818;2023-04-05T22:08:01;10.70;36.60
58849;DHT22;44619;51.022;6.818;2023-04-05T22:10:26;10.60;36.70
58849;DHT22;44619;51.022;6.818;2023-04-05T22:12:52;10.50;36.90
58849;DHT22;44619;51.022;6.818;2023-04-05T22:15:18;10.40;36.70
58849;DHT22;44619;51.022;6.818;2023-04-05T22:17:43;10.40;37.00
58849;DHT22;44619;51.022;6.818;2023-04-05T22:20:09;10.20;37.20
58849;DHT22;44619;51.022;6.818;2023-04-05T22:22:35;10.10;37.30